sensor_id;sensor_type;location;lat;lon;timestamp;P1;durP1;ratioP1;P2;durP2;ratioP2
8556;SDS011;4316;53.840;10.762;2023-07-13T00:01:28;3.45;;;1.60;;
8556;SDS011;4316;53.840;10.762;2023-07-13T00:03:56;4.65;;;1.80;;
8556;SDS011;4316;53.840;10.762;2023-07-13T00:06:22;2.78;;;1.67;;
8556;SDS011;4316;53.840;10.762;2023-07-13T00:08:48;4.85;;;1.90;;
8556;SDS011;4316;53.840;10.762;2023-07-13T00:11:14;6.75;;;1.73;;
8556;SDS011;4316;53.840;10.762;2023-07-13T00:13:41;5.85;;;2.55;;
8556;SDS011;4316;53.840;10.762;2023-07-13T00:16:08;4.43;;;2.03;;
8556;SDS011;4316;53.840;10.762;2023-07-13T00:18:35;3.58;;;1.88;;
8556;SDS011;4316;53.840;10.762;2023-07-13T00:21:01;5.78;;;1.80;;
8556;SDS011;4316;53.840;10.762;2023-07-13T00:23:34;5.75;;;2.13;;
8556;SDS011;4316;53.840;10.762;2023-07-13T00:26:01;5.82;;;1.95;;
8556;SDS011;4316;53.840;10.762;2023-07-13T00:28:28;11.23;;;2.10;;
8556;SDS011;4316;53.840;10.762;2023-07-13T00:30:54;3.53;;;1.55;;
8556;SDS011;4316;53.840;10.762;2023-07-13T00:33:20;4.05;;;1.88;;
8556;SDS011;4316;53.840;10.762;2023-07-13T00:35:46;5.15;;;2.15;;
8556;SDS011;4316;53.840;10.762;2023-07-13T00:38:12;3.92;;;1.60;;
8556;SDS011;4316;53.840;10.762;2023-07-13T00:40:39;8.80;;;1.95;;
8556;SDS011;4316;53.840;10.762;2023-07-13T00:43:09;6.45;;;1.98;;
8556;SDS011;4316;53.840;10.762;2023-07-13T00:48:14;3.55;;;1.65;;
8556;SDS011;4316;53.840;10.762;2023-07-13T00:50:43;7.82;;;2.05;;
8556;SDS011;4316;53.840;10.762;2023-07-13T00:53:11;3.47;;;1.60;;
8556;SDS011;4316;53.840;10.762;2023-07-13T00:55:38;4.32;;;1.60;;
8556;SDS011;4316;53.840;10.762;2023-07-13T00:58:05;7.60;;;2.10;;
8556;SDS011;4316;53.840;10.762;2023-07-13T01:00:33;6.22;;;1.77;;
8556;SDS011;4316;53.840;10.762;2023-07-13T01:03:01;3.15;;;1.50;;
8556;SDS011;4316;53.840;10.762;2023-07-13T01:05:29;4.88;;;1.33;;
8556;SDS011;4316;53.840;10.762;2023-07-13T01:07:58;1.95;;;1.52;;
8556;SDS011;4316;53.840;10.762;2023-07-13T01:10:26;8.15;;;1.70;;
8556;SDS011;4316;53.840;10.762;2023-07-13T01:12:52;6.35;;;1.90;;
8556;SDS011;4316;53.840;10.762;2023-07-13T01:18:12;3.72;;;1.58;;
8556;SDS011;4316;53.840;10.762;2023-07-13T01:20:41;10.35;;;1.88;;
8556;SDS011;4316;53.840;10.762;2023-07-13T01:23:12;5.85;;;1.80;;
8556;SDS011;4316;53.840;10.762;2023-07-13T01:25:38;6.15;;;2.00;;
8556;SDS011;4316;53.840;10.762;2023-07-13T01:28:05;5.72;;;1.73;;
8556;SDS011;4316;53.840;10.762;2023-07-13T01:30:34;6.25;;;1.83;;
8556;SDS011;4316;53.840;10.762;2023-07-13T01:33:01;5.85;;;1.80;;
8556;SDS011;4316;53.840;10.762;2023-07-13T01:35:29;4.53;;;1.60;;
8556;SDS011;4316;53.840;10.762;2023-07-13T01:37:54;11.88;;;1.83;;
8556;SDS011;4316;53.840;10.762;2023-07-13T01:40:22;1.98;;;1.50;;
8556;SDS011;4316;53.840;10.762;2023-07-13T01:42:47;3.22;;;1.27;;
8556;SDS011;4316;53.840;10.762;2023-07-13T01:45:13;5.03;;;1.70;;
8556;SDS011;4316;53.840;10.762;2023-07-13T01:47:39;3.35;;;1.63;;
8556;SDS011;4316;53.840;10.762;2023-07-13T01:50:05;4.97;;;1.58;;
8556;SDS011;4316;53.840;10.762;2023-07-13T01:52:31;2.58;;;1.35;;
8556;SDS011;4316;53.840;10.762;2023-07-13T01:54:57;6.50;;;2.10;;
8556;SDS011;4316;53.840;10.762;2023-07-13T01:57:23;12.82;;;2.20;;
8556;SDS011;4316;53.840;10.762;2023-07-13T01:59:49;8.43;;;1.75;;
8556;SDS011;4316;53.840;10.762;2023-07-13T02:02:14;6.97;;;1.80;;
8556;SDS011;4316;53.840;10.762;2023-07-13T02:04:40;6.53;;;1.75;;
8556;SDS011;4316;53.840;10.762;2023-07-13T02:07:07;4.72;;;1.75;;
8556;SDS011;4316;53.840;10.762;2023-07-13T02:09:33;4.65;;;1.83;;
8556;SDS011;4316;53.840;10.762;2023-07-13T02:11:59;1.80;;;1.30;;
8556;SDS011;4316;53.840;10.762;2023-07-13T02:14:30;3.22;;;1.70;;
8556;SDS011;4316;53.840;10.762;2023-07-13T02:16:55;3.05;;;1.77;;
8556;SDS011;4316;53.840;10.762;2023-07-13T02:19:21;3.80;;;1.40;;
8556;SDS011;4316;53.840;10.762;2023-07-13T02:21:47;2.63;;;1.50;;
8556;SDS011;4316;53.840;10.762;2023-07-13T02:24:13;8.93;;;2.13;;
8556;SDS011;4316;53.840;10.762;2023-07-13T02:26:43;3.78;;;1.67;;
8556;SDS011;4316;53.840;10.762;2023-07-13T02:29:09;4.65;;;1.50;;
8556;SDS011;4316;53.840;10.762;2023-07-13T02:31:35;3.00;;;1.60;;
8556;SDS011;4316;53.840;10.762;2023-07-13T02:34:04;6.10;;;1.50;;
8556;SDS011;4316;53.840;10.762;2023-07-13T02:36:30;7.80;;;1.63;;
8556;SDS011;4316;53.840;10.762;2023-07-13T02:38:57;7.22;;;1.92;;
8556;SDS011;4316;53.840;10.762;2023-07-13T02:41:27;5.65;;;1.63;;
8556;SDS011;4316;53.840;10.762;2023-07-13T02:43:54;2.20;;;1.37;;
8556;SDS011;4316;53.840;10.762;2023-07-13T02:46:28;6.40;;;2.05;;
8556;SDS011;4316;53.840;10.762;2023-07-13T02:48:56;4.40;;;1.90;;
8556;SDS011;4316;53.840;10.762;2023-07-13T02:51:22;6.88;;;1.73;;
8556;SDS011;4316;53.840;10.762;2023-07-13T02:53:48;3.97;;;1.60;;
8556;SDS011;4316;53.840;10.762;2023-07-13T02:56:13;4.15;;;1.60;;
8556;SDS011;4316;53.840;10.762;2023-07-13T02:58:39;6.38;;;1.95;;
8556;SDS011;4316;53.840;10.762;2023-07-13T03:01:06;3.05;;;1.70;;
8556;SDS011;4316;53.840;10.762;2023-07-13T03:03:33;3.27;;;1.80;;
8556;SDS011;4316;53.840;10.762;2023-07-13T03:06:00;3.57;;;1.80;;
8556;SDS011;4316;53.840;10.762;2023-07-13T03:08:33;6.50;;;1.50;;
8556;SDS011;4316;53.840;10.762;2023-07-13T03:11:03;2.60;;;1.70;;
8556;SDS011;4316;53.840;10.762;2023-07-13T03:13:33;8.23;;;2.17;;
8556;SDS011;4316;53.840;10.762;2023-07-13T03:16:00;6.70;;;1.67;;
8556;SDS011;4316;53.840;10.762;2023-07-13T03:18:27;5.28;;;1.88;;
8556;SDS011;4316;53.840;10.762;2023-07-13T03:20:54;3.63;;;1.73;;
8556;SDS011;4316;53.840;10.762;2023-07-13T03:23:21;9.05;;;1.92;;
8556;SDS011;4316;53.840;10.762;2023-07-13T03:25:47;7.78;;;2.20;;
8556;SDS011;4316;53.840;10.762;2023-07-13T03:28:14;4.05;;;1.58;;
8556;SDS011;4316;53.840;10.762;2023-07-13T03:30:41;2.08;;;1.50;;
8556;SDS011;4316;53.840;10.762;2023-07-13T03:33:07;4.93;;;1.55;;
8556;SDS011;4316;53.840;10.762;2023-07-13T03:35:34;5.70;;;1.55;;
8556;SDS011;4316;53.840;10.762;2023-07-13T03:38:00;4.05;;;1.63;;
8556;SDS011;4316;53.840;10.762;2023-07-13T03:40:27;3.33;;;1.60;;
8556;SDS011;4316;53.840;10.762;2023-07-13T03:42:53;4.90;;;1.95;;
8556;SDS011;4316;53.840;10.762;2023-07-13T03:45:20;5.37;;;1.97;;
8556;SDS011;4316;53.840;10.762;2023-07-13T03:47:48;5.30;;;1.80;;
8556;SDS011;4316;53.840;10.762;2023-07-13T03:50:17;5.85;;;1.40;;
8556;SDS011;4316;53.840;10.762;2023-07-13T03:52:43;3.67;;;1.57;;
8556;SDS011;4316;53.840;10.762;2023-07-13T03:55:14;4.45;;;1.70;;
8556;SDS011;4316;53.840;10.762;2023-07-13T03:57:40;5.37;;;1.60;;
8556;SDS011;4316;53.840;10.762;2023-07-13T04:00:07;3.33;;;1.45;;
8556;SDS011;4316;53.840;10.762;2023-07-13T04:02:41;5.65;;;1.50;;
8556;SDS011;4316;53.840;10.762;2023-07-13T04:05:07;7.93;;;2.00;;
8556;SDS011;4316;53.840;10.762;2023-07-13T04:07:32;2.13;;;1.40;;
8556;SDS011;4316;53.840;10.762;2023-07-13T04:09:59;2.55;;;1.67;;
8556;SDS011;4316;53.840;10.762;2023-07-13T04:12:24;8.50;;;2.47;;
8556;SDS011;4316;53.840;10.762;2023-07-13T04:14:50;3.17;;;1.80;;
8556;SDS011;4316;53.840;10.762;2023-07-13T04:17:16;3.60;;;1.52;;
8556;SDS011;4316;53.840;10.762;2023-07-13T04:19:42;6.37;;;1.90;;
8556;SDS011;4316;53.840;10.762;2023-07-13T04:22:07;7.20;;;2.30;;
8556;SDS011;4316;53.840;10.762;2023-07-13T04:24:33;9.52;;;2.25;;
8556;SDS011;4316;53.840;10.762;2023-07-13T04:26:59;2.70;;;1.95;;
8556;SDS011;4316;53.840;10.762;2023-07-13T04:29:25;7.07;;;1.80;;
8556;SDS011;4316;53.840;10.762;2023-07-13T04:31:51;2.70;;;1.52;;
8556;SDS011;4316;53.840;10.762;2023-07-13T04:34:16;4.30;;;1.90;;
8556;SDS011;4316;53.840;10.762;2023-07-13T04:36:42;6.78;;;1.77;;
8556;SDS011;4316;53.840;10.762;2023-07-13T04:39:08;6.25;;;1.92;;
8556;SDS011;4316;53.840;10.762;2023-07-13T04:41:34;9.38;;;1.70;;
8556;SDS011;4316;53.840;10.762;2023-07-13T04:44:00;5.80;;;1.80;;
8556;SDS011;4316;53.840;10.762;2023-07-13T04:46:25;4.70;;;2.13;;
8556;SDS011;4316;53.840;10.762;2023-07-13T04:48:51;7.75;;;1.80;;
8556;SDS011;4316;53.840;10.762;2023-07-13T04:51:18;7.50;;;2.25;;
8556;SDS011;4316;53.840;10.762;2023-07-13T04:53:44;8.80;;;2.05;;
8556;SDS011;4316;53.840;10.762;2023-07-13T04:56:09;5.13;;;1.70;;
8556;SDS011;4316;53.840;10.762;2023-07-13T04:58:35;6.20;;;1.73;;
8556;SDS011;4316;53.840;10.762;2023-07-13T05:01:04;4.88;;;1.73;;
8556;SDS011;4316;53.840;10.762;2023-07-13T05:03:31;7.45;;;2.08;;
8556;SDS011;4316;53.840;10.762;2023-07-13T05:05:58;6.88;;;1.55;;
8556;SDS011;4316;53.840;10.762;2023-07-13T05:08:26;7.20;;;1.80;;
8556;SDS011;4316;53.840;10.762;2023-07-13T05:10:52;5.10;;;1.83;;
8556;SDS011;4316;53.840;10.762;2023-07-13T05:13:18;4.72;;;1.65;;
8556;SDS011;4316;53.840;10.762;2023-07-13T05:15:45;5.28;;;1.85;;
8556;SDS011;4316;53.840;10.762;2023-07-13T05:18:10;6.07;;;2.13;;
8556;SDS011;4316;53.840;10.762;2023-07-13T05:20:36;6.63;;;1.60;;
8556;SDS011;4316;53.840;10.762;2023-07-13T05:23:02;8.52;;;1.95;;
8556;SDS011;4316;53.840;10.762;2023-07-13T05:25:28;5.20;;;1.70;;
8556;SDS011;4316;53.840;10.762;2023-07-13T05:27:53;4.80;;;1.83;;
8556;SDS011;4316;53.840;10.762;2023-07-13T05:30:19;6.88;;;1.65;;
8556;SDS011;4316;53.840;10.762;2023-07-13T05:32:45;5.20;;;1.90;;
8556;SDS011;4316;53.840;10.762;2023-07-13T05:35:11;9.55;;;1.60;;
8556;SDS011;4316;53.840;10.762;2023-07-13T05:37:37;7.05;;;1.80;;
8556;SDS011;4316;53.840;10.762;2023-07-13T05:40:03;8.48;;;1.83;;
8556;SDS011;4316;53.840;10.762;2023-07-13T05:42:29;3.97;;;1.77;;
8556;SDS011;4316;53.840;10.762;2023-07-13T05:44:56;3.65;;;1.80;;
8556;SDS011;4316;53.840;10.762;2023-07-13T05:47:22;4.47;;;1.40;;
8556;SDS011;4316;53.840;10.762;2023-07-13T05:49:47;5.45;;;1.73;;
8556;SDS011;4316;53.840;10.762;2023-07-13T05:52:13;5.18;;;2.05;;
8556;SDS011;4316;53.840;10.762;2023-07-13T05:54:39;8.25;;;2.25;;
8556;SDS011;4316;53.840;10.762;2023-07-13T05:57:05;9.45;;;2.05;;
8556;SDS011;4316;53.840;10.762;2023-07-13T05:59:30;7.55;;;1.85;;
8556;SDS011;4316;53.840;10.762;2023-07-13T06:01:56;5.10;;;1.92;;
8556;SDS011;4316;53.840;10.762;2023-07-13T06:04:22;7.53;;;1.75;;
8556;SDS011;4316;53.840;10.762;2023-07-13T06:06:48;5.63;;;2.00;;
8556;SDS011;4316;53.840;10.762;2023-07-13T06:09:13;10.88;;;2.47;;
8556;SDS011;4316;53.840;10.762;2023-07-13T06:11:39;8.00;;;2.30;;
8556;SDS011;4316;53.840;10.762;2023-07-13T06:14:05;10.60;;;2.47;;
8556;SDS011;4316;53.840;10.762;2023-07-13T06:16:30;7.75;;;2.28;;
8556;SDS011;4316;53.840;10.762;2023-07-13T06:18:56;13.27;;;2.25;;
8556;SDS011;4316;53.840;10.762;2023-07-13T06:21:22;15.95;;;2.63;;
8556;SDS011;4316;53.840;10.762;2023-07-13T06:23:49;8.57;;;2.33;;
8556;SDS011;4316;53.840;10.762;2023-07-13T06:26:16;7.70;;;2.85;;
8556;SDS011;4316;53.840;10.762;2023-07-13T06:28:43;7.47;;;2.55;;
8556;SDS011;4316;53.840;10.762;2023-07-13T06:31:10;9.45;;;2.75;;
8556;SDS011;4316;53.840;10.762;2023-07-13T06:33:37;15.10;;;2.83;;
8556;SDS011;4316;53.840;10.762;2023-07-13T06:36:03;8.50;;;2.20;;
8556;SDS011;4316;53.840;10.762;2023-07-13T06:38:30;13.45;;;2.30;;
8556;SDS011;4316;53.840;10.762;2023-07-13T06:40:56;6.05;;;2.25;;
8556;SDS011;4316;53.840;10.762;2023-07-13T06:43:22;12.00;;;2.65;;
8556;SDS011;4316;53.840;10.762;2023-07-13T06:45:50;10.32;;;2.60;;
8556;SDS011;4316;53.840;10.762;2023-07-13T06:48:16;7.90;;;2.28;;
8556;SDS011;4316;53.840;10.762;2023-07-13T06:50:43;14.02;;;3.28;;
8556;SDS011;4316;53.840;10.762;2023-07-13T06:53:10;7.80;;;2.85;;
8556;SDS011;4316;53.840;10.762;2023-07-13T06:55:36;12.05;;;2.85;;
8556;SDS011;4316;53.840;10.762;2023-07-13T06:58:02;14.77;;;3.28;;
8556;SDS011;4316;53.840;10.762;2023-07-13T07:00:28;13.70;;;2.83;;
8556;SDS011;4316;53.840;10.762;2023-07-13T07:02:54;11.10;;;3.20;;
8556;SDS011;4316;53.840;10.762;2023-07-13T07:05:20;11.68;;;2.65;;
8556;SDS011;4316;53.840;10.762;2023-07-13T07:07:50;16.40;;;3.20;;
8556;SDS011;4316;53.840;10.762;2023-07-13T07:10:17;11.88;;;3.47;;
8556;SDS011;4316;53.840;10.762;2023-07-13T07:12:43;18.52;;;3.38;;
8556;SDS011;4316;53.840;10.762;2023-07-13T07:15:09;12.23;;;3.95;;
8556;SDS011;4316;53.840;10.762;2023-07-13T07:17:36;12.35;;;3.22;;
8556;SDS011;4316;53.840;10.762;2023-07-13T07:20:02;12.40;;;3.72;;
8556;SDS011;4316;53.840;10.762;2023-07-13T07:22:28;12.05;;;3.45;;
8556;SDS011;4316;53.840;10.762;2023-07-13T07:24:55;14.48;;;3.33;;
8556;SDS011;4316;53.840;10.762;2023-07-13T07:27:25;11.63;;;2.75;;
8556;SDS011;4316;53.840;10.762;2023-07-13T07:29:51;22.65;;;3.90;;
8556;SDS011;4316;53.840;10.762;2023-07-13T07:32:16;12.57;;;3.17;;
8556;SDS011;4316;53.840;10.762;2023-07-13T07:34:42;13.60;;;3.50;;
8556;SDS011;4316;53.840;10.762;2023-07-13T07:37:11;15.30;;;3.55;;
8556;SDS011;4316;53.840;10.762;2023-07-13T07:39:38;11.57;;;2.65;;
8556;SDS011;4316;53.840;10.762;2023-07-13T07:42:04;17.42;;;3.05;;
8556;SDS011;4316;53.840;10.762;2023-07-13T07:44:31;15.02;;;3.42;;
8556;SDS011;4316;53.840;10.762;2023-07-13T07:46:57;14.55;;;2.70;;
8556;SDS011;4316;53.840;10.762;2023-07-13T07:49:23;13.10;;;2.97;;
8556;SDS011;4316;53.840;10.762;2023-07-13T07:51:49;13.38;;;3.10;;
8556;SDS011;4316;53.840;10.762;2023-07-13T07:54:16;9.50;;;3.03;;
8556;SDS011;4316;53.840;10.762;2023-07-13T07:56:42;11.70;;;2.97;;
8556;SDS011;4316;53.840;10.762;2023-07-13T07:59:07;9.20;;;1.98;;
8556;SDS011;4316;53.840;10.762;2023-07-13T08:01:33;7.22;;;2.38;;
8556;SDS011;4316;53.840;10.762;2023-07-13T08:03:59;10.27;;;2.28;;
8556;SDS011;4316;53.840;10.762;2023-07-13T08:06:25;7.57;;;2.22;;
8556;SDS011;4316;53.840;10.762;2023-07-13T08:08:50;6.50;;;1.88;;
8556;SDS011;4316;53.840;10.762;2023-07-13T08:11:16;9.18;;;2.10;;
8556;SDS011;4316;53.840;10.762;2023-07-13T08:13:43;8.18;;;2.33;;
8556;SDS011;4316;53.840;10.762;2023-07-13T08:16:09;5.00;;;1.83;;
8556;SDS011;4316;53.840;10.762;2023-07-13T08:18:37;5.25;;;1.73;;
8556;SDS011;4316;53.840;10.762;2023-07-13T08:21:06;5.32;;;1.95;;
8556;SDS011;4316;53.840;10.762;2023-07-13T08:23:33;8.90;;;1.83;;
8556;SDS011;4316;53.840;10.762;2023-07-13T08:25:59;8.30;;;1.90;;
8556;SDS011;4316;53.840;10.762;2023-07-13T08:28:29;3.92;;;1.50;;
8556;SDS011;4316;53.840;10.762;2023-07-13T08:31:00;4.85;;;1.75;;
8556;SDS011;4316;53.840;10.762;2023-07-13T08:33:26;10.45;;;1.50;;
8556;SDS011;4316;53.840;10.762;2023-07-13T08:35:52;7.13;;;1.80;;
8556;SDS011;4316;53.840;10.762;2023-07-13T08:38:18;10.98;;;1.83;;
8556;SDS011;4316;53.840;10.762;2023-07-13T08:40:45;8.70;;;1.85;;
8556;SDS011;4316;53.840;10.762;2023-07-13T08:43:18;8.80;;;1.95;;
8556;SDS011;4316;53.840;10.762;2023-07-13T08:45:51;3.00;;;1.20;;
8556;SDS011;4316;53.840;10.762;2023-07-13T08:48:22;7.72;;;2.40;;
8556;SDS011;4316;53.840;10.762;2023-07-13T08:51:02;5.85;;;2.05;;
8556;SDS011;4316;53.840;10.762;2023-07-13T08:53:49;7.90;;;2.00;;
8556;SDS011;4316;53.840;10.762;2023-07-13T08:56:18;5.35;;;1.70;;
8556;SDS011;4316;53.840;10.762;2023-07-13T08:58:51;5.95;;;1.73;;
8556;SDS011;4316;53.840;10.762;2023-07-13T09:01:29;5.53;;;1.83;;
8556;SDS011;4316;53.840;10.762;2023-07-13T09:04:14;5.13;;;1.60;;
8556;SDS011;4316;53.840;10.762;2023-07-13T09:07:01;3.92;;;1.63;;
8556;SDS011;4316;53.840;10.762;2023-07-13T09:09:45;5.88;;;1.42;;
8556;SDS011;4316;53.840;10.762;2023-07-13T09:12:27;2.63;;;1.38;;
8556;SDS011;4316;53.840;10.762;2023-07-13T09:15:03;4.35;;;1.33;;
8556;SDS011;4316;53.840;10.762;2023-07-13T09:17:40;4.93;;;1.60;;
8556;SDS011;4316;53.840;10.762;2023-07-13T09:20:20;2.67;;;1.30;;
8556;SDS011;4316;53.840;10.762;2023-07-13T09:22:47;7.57;;;1.65;;
8556;SDS011;4316;53.840;10.762;2023-07-13T09:25:24;4.00;;;1.58;;
8556;SDS011;4316;53.840;10.762;2023-07-13T09:27:55;8.00;;;1.50;;
8556;SDS011;4316;53.840;10.762;2023-07-13T09:30:34;3.63;;;1.38;;
8556;SDS011;4316;53.840;10.762;2023-07-13T09:33:25;5.68;;;1.67;;
8556;SDS011;4316;53.840;10.762;2023-07-13T09:35:54;4.38;;;1.55;;
8556;SDS011;4316;53.840;10.762;2023-07-13T09:38:24;3.28;;;1.60;;
8556;SDS011;4316;53.840;10.762;2023-07-13T09:43:35;11.80;;;2.80;;
8556;SDS011;4316;53.840;10.762;2023-07-13T09:46:01;4.70;;;1.98;;
8556;SDS011;4316;53.840;10.762;2023-07-13T09:48:34;5.20;;;1.58;;
8556;SDS011;4316;53.840;10.762;2023-07-13T09:51:14;4.68;;;1.50;;
8556;SDS011;4316;53.840;10.762;2023-07-13T09:53:41;4.65;;;1.85;;
8556;SDS011;4316;53.840;10.762;2023-07-13T09:56:21;5.40;;;1.30;;
8556;SDS011;4316;53.840;10.762;2023-07-13T09:58:48;7.68;;;1.52;;
8556;SDS011;4316;53.840;10.762;2023-07-13T10:01:15;4.50;;;1.83;;
8556;SDS011;4316;53.840;10.762;2023-07-13T10:03:57;5.78;;;1.65;;
8556;SDS011;4316;53.840;10.762;2023-07-13T10:06:23;5.00;;;1.92;;
8556;SDS011;4316;53.840;10.762;2023-07-13T10:08:51;9.95;;;2.00;;
8556;SDS011;4316;53.840;10.762;2023-07-13T10:11:19;4.15;;;1.70;;
8556;SDS011;4316;53.840;10.762;2023-07-13T10:13:51;3.28;;;1.67;;
8556;SDS011;4316;53.840;10.762;2023-07-13T10:16:23;4.03;;;1.60;;
8556;SDS011;4316;53.840;10.762;2023-07-13T10:18:57;2.63;;;1.42;;
8556;SDS011;4316;53.840;10.762;2023-07-13T10:21:28;3.83;;;1.38;;
8556;SDS011;4316;53.840;10.762;2023-07-13T10:24:18;6.07;;;1.20;;
8556;SDS011;4316;53.840;10.762;2023-07-13T10:26:50;3.03;;;1.33;;
8556;SDS011;4316;53.840;10.762;2023-07-13T10:29:37;4.53;;;1.42;;
8556;SDS011;4316;53.840;10.762;2023-07-13T10:32:24;3.90;;;1.60;;
8556;SDS011;4316;53.840;10.762;2023-07-13T10:34:50;3.15;;;1.60;;
8556;SDS011;4316;53.840;10.762;2023-07-13T10:37:27;4.68;;;1.20;;
8556;SDS011;4316;53.840;10.762;2023-07-13T10:40:06;2.83;;;1.42;;
8556;SDS011;4316;53.840;10.762;2023-07-13T10:42:39;4.32;;;1.50;;
8556;SDS011;4316;53.840;10.762;2023-07-13T10:45:15;8.90;;;1.88;;
8556;SDS011;4316;53.840;10.762;2023-07-13T10:47:44;2.75;;;1.30;;
8556;SDS011;4316;53.840;10.762;2023-07-13T10:50:29;4.30;;;1.52;;
8556;SDS011;4316;53.840;10.762;2023-07-13T10:53:02;3.75;;;1.23;;
8556;SDS011;4316;53.840;10.762;2023-07-13T11:01:13;3.35;;;1.45;;
8556;SDS011;4316;53.840;10.762;2023-07-13T11:03:53;3.00;;;1.58;;
8556;SDS011;4316;53.840;10.762;2023-07-13T11:08:57;5.43;;;1.67;;
8556;SDS011;4316;53.840;10.762;2023-07-13T11:13:56;3.83;;;1.80;;
8556;SDS011;4316;53.840;10.762;2023-07-13T11:18:53;5.30;;;1.90;;
8556;SDS011;4316;53.840;10.762;2023-07-13T11:35:41;4.10;;;1.63;;
8556;SDS011;4316;53.840;10.762;2023-07-13T11:39:16;3.92;;;1.40;;
8556;SDS011;4316;53.840;10.762;2023-07-13T11:41:22;4.75;;;1.15;;
8556;SDS011;4316;53.840;10.762;2023-07-13T11:44:05;2.67;;;1.30;;
8556;SDS011;4316;53.840;10.762;2023-07-13T11:46:35;2.58;;;1.17;;
8556;SDS011;4316;53.840;10.762;2023-07-13T11:49:01;8.60;;;1.60;;
8556;SDS011;4316;53.840;10.762;2023-07-13T11:51:31;2.17;;;1.00;;
8556;SDS011;4316;53.840;10.762;2023-07-13T11:54:01;6.32;;;1.35;;
8556;SDS011;4316;53.840;10.762;2023-07-13T11:56:29;3.70;;;1.60;;
8556;SDS011;4316;53.840;10.762;2023-07-13T11:58:57;5.15;;;1.77;;
8556;SDS011;4316;53.840;10.762;2023-07-13T12:01:30;5.03;;;1.50;;
8556;SDS011;4316;53.840;10.762;2023-07-13T12:04:00;5.05;;;1.90;;
8556;SDS011;4316;53.840;10.762;2023-07-13T12:06:29;3.67;;;1.70;;
8556;SDS011;4316;53.840;10.762;2023-07-13T12:09:00;3.70;;;1.52;;
8556;SDS011;4316;53.840;10.762;2023-07-13T12:11:28;6.55;;;1.60;;
8556;SDS011;4316;53.840;10.762;2023-07-13T12:13:55;7.72;;;1.65;;
8556;SDS011;4316;53.840;10.762;2023-07-13T12:18:47;4.53;;;1.55;;
8556;SDS011;4316;53.840;10.762;2023-07-13T12:21:14;4.95;;;1.70;;
8556;SDS011;4316;53.840;10.762;2023-07-13T12:23:43;4.55;;;1.65;;
8556;SDS011;4316;53.840;10.762;2023-07-13T12:26:12;3.97;;;1.65;;
8556;SDS011;4316;53.840;10.762;2023-07-13T12:28:43;3.28;;;1.55;;
8556;SDS011;4316;53.840;10.762;2023-07-13T12:34:13;4.25;;;1.65;;
8556;SDS011;4316;53.840;10.762;2023-07-13T12:39:22;3.00;;;1.33;;
8556;SDS011;4316;53.840;10.762;2023-07-13T12:41:51;5.75;;;1.67;;
8556;SDS011;4316;53.840;10.762;2023-07-13T12:44:19;3.05;;;1.08;;
8556;SDS011;4316;53.840;10.762;2023-07-13T12:47:03;6.00;;;1.48;;
8556;SDS011;4316;53.840;10.762;2023-07-13T12:49:39;2.60;;;1.35;;
8556;SDS011;4316;53.840;10.762;2023-07-13T12:52:12;2.58;;;1.50;;
8556;SDS011;4316;53.840;10.762;2023-07-13T12:54:52;3.90;;;1.23;;
8556;SDS011;4316;53.840;10.762;2023-07-13T12:57:22;3.25;;;1.27;;
8556;SDS011;4316;53.840;10.762;2023-07-13T12:59:53;6.28;;;1.33;;
8556;SDS011;4316;53.840;10.762;2023-07-13T13:04:54;4.00;;;1.42;;
8556;SDS011;4316;53.840;10.762;2023-07-13T13:07:22;6.50;;;1.73;;
8556;SDS011;4316;53.840;10.762;2023-07-13T13:09:48;2.83;;;1.63;;
8556;SDS011;4316;53.840;10.762;2023-07-13T13:12:14;4.25;;;1.00;;
8556;SDS011;4316;53.840;10.762;2023-07-13T13:14:40;1.58;;;1.10;;
8556;SDS011;4316;53.840;10.762;2023-07-13T13:17:19;1.45;;;1.10;;
8556;SDS011;4316;53.840;10.762;2023-07-13T13:19:55;4.45;;;1.40;;
8556;SDS011;4316;53.840;10.762;2023-07-13T13:22:22;1.98;;;1.10;;
8556;SDS011;4316;53.840;10.762;2023-07-13T13:24:48;6.53;;;1.40;;
8556;SDS011;4316;53.840;10.762;2023-07-13T13:27:15;2.33;;;1.20;;
8556;SDS011;4316;53.840;10.762;2023-07-13T13:29:45;4.20;;;1.63;;
8556;SDS011;4316;53.840;10.762;2023-07-13T13:32:12;4.55;;;1.75;;
8556;SDS011;4316;53.840;10.762;2023-07-13T13:34:39;7.35;;;1.92;;
8556;SDS011;4316;53.840;10.762;2023-07-13T13:39:45;3.85;;;1.95;;
8556;SDS011;4316;53.840;10.762;2023-07-13T13:42:12;9.95;;;1.60;;
8556;SDS011;4316;53.840;10.762;2023-07-13T13:44:39;9.48;;;1.85;;
8556;SDS011;4316;53.840;10.762;2023-07-13T13:47:18;3.30;;;1.60;;
8556;SDS011;4316;53.840;10.762;2023-07-13T13:49:56;6.22;;;2.05;;
8556;SDS011;4316;53.840;10.762;2023-07-13T13:52:23;3.83;;;1.90;;
8556;SDS011;4316;53.840;10.762;2023-07-13T13:54:49;4.72;;;1.52;;
8556;SDS011;4316;53.840;10.762;2023-07-13T13:57:15;5.70;;;1.85;;
8556;SDS011;4316;53.840;10.762;2023-07-13T13:59:41;4.22;;;1.60;;
8556;SDS011;4316;53.840;10.762;2023-07-13T14:02:26;2.47;;;1.58;;
8556;SDS011;4316;53.840;10.762;2023-07-13T14:05:00;7.25;;;1.83;;
8556;SDS011;4316;53.840;10.762;2023-07-13T14:07:27;2.28;;;1.27;;
8556;SDS011;4316;53.840;10.762;2023-07-13T14:09:58;2.78;;;1.50;;
8556;SDS011;4316;53.840;10.762;2023-07-13T14:12:28;4.38;;;1.70;;
8556;SDS011;4316;53.840;10.762;2023-07-13T14:14:55;3.95;;;1.52;;
8556;SDS011;4316;53.840;10.762;2023-07-13T14:17:24;2.45;;;1.55;;
8556;SDS011;4316;53.840;10.762;2023-07-13T14:19:52;4.55;;;1.42;;
8556;SDS011;4316;53.840;10.762;2023-07-13T14:22:25;3.17;;;1.42;;
8556;SDS011;4316;53.840;10.762;2023-07-13T14:24:52;2.08;;;1.38;;
8556;SDS011;4316;53.840;10.762;2023-07-13T14:27:19;5.40;;;1.70;;
8556;SDS011;4316;53.840;10.762;2023-07-13T14:29:45;6.13;;;1.60;;
8556;SDS011;4316;53.840;10.762;2023-07-13T14:32:11;3.70;;;1.58;;
8556;SDS011;4316;53.840;10.762;2023-07-13T14:34:37;4.00;;;1.65;;
8556;SDS011;4316;53.840;10.762;2023-07-13T14:37:04;3.70;;;1.58;;
8556;SDS011;4316;53.840;10.762;2023-07-13T14:39:30;4.47;;;1.45;;
8556;SDS011;4316;53.840;10.762;2023-07-13T14:41:56;2.95;;;1.45;;
8556;SDS011;4316;53.840;10.762;2023-07-13T14:44:28;5.28;;;1.98;;
8556;SDS011;4316;53.840;10.762;2023-07-13T14:46:56;3.72;;;1.45;;
8556;SDS011;4316;53.840;10.762;2023-07-13T14:49:25;5.70;;;1.80;;
8556;SDS011;4316;53.840;10.762;2023-07-13T14:51:55;5.10;;;1.92;;
8556;SDS011;4316;53.840;10.762;2023-07-13T14:54:22;2.45;;;1.27;;
8556;SDS011;4316;53.840;10.762;2023-07-13T14:56:48;1.90;;;1.40;;
8556;SDS011;4316;53.840;10.762;2023-07-13T14:59:15;3.45;;;1.60;;
8556;SDS011;4316;53.840;10.762;2023-07-13T15:01:44;4.30;;;1.65;;
8556;SDS011;4316;53.840;10.762;2023-07-13T15:04:10;3.90;;;1.65;;
8556;SDS011;4316;53.840;10.762;2023-07-13T15:09:25;4.68;;;1.60;;
8556;SDS011;4316;53.840;10.762;2023-07-13T15:11:52;3.75;;;1.40;;
8556;SDS011;4316;53.840;10.762;2023-07-13T15:14:19;6.30;;;1.58;;
8556;SDS011;4316;53.840;10.762;2023-07-13T15:16:46;6.20;;;1.60;;
8556;SDS011;4316;53.840;10.762;2023-07-13T15:19:13;4.30;;;1.42;;
8556;SDS011;4316;53.840;10.762;2023-07-13T15:21:41;2.65;;;1.33;;
8556;SDS011;4316;53.840;10.762;2023-07-13T15:24:08;4.85;;;1.63;;
8556;SDS011;4316;53.840;10.762;2023-07-13T15:26:35;6.63;;;2.08;;
8556;SDS011;4316;53.840;10.762;2023-07-13T15:29:01;5.60;;;2.10;;
8556;SDS011;4316;53.840;10.762;2023-07-13T15:31:28;3.05;;;1.60;;
8556;SDS011;4316;53.840;10.762;2023-07-13T15:33:55;3.45;;;1.40;;
8556;SDS011;4316;53.840;10.762;2023-07-13T15:36:22;2.47;;;1.80;;
8556;SDS011;4316;53.840;10.762;2023-07-13T15:38:51;7.40;;;2.80;;
8556;SDS011;4316;53.840;10.762;2023-07-13T15:41:23;2.70;;;1.70;;
8556;SDS011;4316;53.840;10.762;2023-07-13T15:43:51;4.43;;;1.67;;
8556;SDS011;4316;53.840;10.762;2023-07-13T15:46:19;2.53;;;1.50;;
8556;SDS011;4316;53.840;10.762;2023-07-13T15:48:49;3.70;;;1.58;;
8556;SDS011;4316;53.840;10.762;2023-07-13T15:51:20;2.80;;;1.63;;
8556;SDS011;4316;53.840;10.762;2023-07-13T15:53:56;6.72;;;1.95;;
8556;SDS011;4316;53.840;10.762;2023-07-13T15:56:25;5.95;;;2.15;;
8556;SDS011;4316;53.840;10.762;2023-07-13T15:58:52;2.25;;;1.30;;
8556;SDS011;4316;53.840;10.762;2023-07-13T16:01:19;5.22;;;1.40;;